createdAt,value
2018-09-15T00:00:42.952Z,19.50
2018-09-15T00:03:10.738Z,19.50
2018-09-15T00:05:38.541Z,19.40
2018-09-15T00:08:06.340Z,19.40
2018-09-15T00:10:34.147Z,19.40
2018-09-15T00:13:01.988Z,19.40
2018-09-15T00:15:29.770Z,19.40
2018-09-15T00:17:59.060Z,19.40
2018-09-15T00:20:26.978Z,19.30
2018-09-15T00:22:54.900Z,19.50
2018-09-15T00:25:22.903Z,19.50
2018-09-15T00:27:50.681Z,19.40
2018-09-15T00:30:18.486Z,19.40
2018-09-15T00:32:46.254Z,19.40
2018-09-15T00:35:14.147Z,19.40
2018-09-15T00:37:41.897Z,19.30
2018-09-15T00:40:09.662Z,19.40
2018-09-15T00:42:37.446Z,19.40
2018-09-15T00:45:05.269Z,19.40
2018-09-15T00:47:33.060Z,19.40
2018-09-15T00:50:00.813Z,19.50
2018-09-15T00:52:28.600Z,19.50
2018-09-15T00:54:56.492Z,19.50
2018-09-15T00:57:24.269Z,19.50
2018-09-15T00:59:52.988Z,19.40
2018-09-15T01:02:20.764Z,19.40
2018-09-15T01:04:52.660Z,19.40
2018-09-15T01:07:20.445Z,19.30
2018-09-15T01:09:48.213Z,19.30
2018-09-15T01:12:15.969Z,19.30
2018-09-15T01:14:43.755Z,19.30
2018-09-15T01:17:11.525Z,19.30
2018-09-15T01:19:39.396Z,19.30
2018-09-15T01:22:07.504Z,19.30
2018-09-15T01:24:35.265Z,19.20
2018-09-15T01:27:03.037Z,19.20
2018-09-15T01:29:31.928Z,19.30
2018-09-15T01:32:00.030Z,19.30
2018-09-15T01:34:27.792Z,19.30
2018-09-15T01:36:55.888Z,19.30
2018-09-15T01:39:23.841Z,19.20
2018-09-15T01:41:51.678Z,19.20
2018-09-15T01:44:19.503Z,19.20
2018-09-15T01:46:47.315Z,19.20
2018-09-15T01:49:16.796Z,19.20
2018-09-15T01:51:44.628Z,19.20
2018-09-15T01:54:12.436Z,19.20
2018-09-15T01:56:40.222Z,19.30
2018-09-15T01:59:08.017Z,19.70
2018-09-15T02:01:35.899Z,19.80
2018-09-15T02:04:03.661Z,19.60
2018-09-15T02:06:31.444Z,19.60
2018-09-15T02:08:59.241Z,19.50
2018-09-15T02:11:27.083Z,19.20
2018-09-15T02:13:55.349Z,19.40
2018-09-15T02:16:23.172Z,19.40
2018-09-15T02:18:50.937Z,19.30
2018-09-15T02:21:18.708Z,19.30
2018-09-15T02:23:46.440Z,19.30
2018-09-15T02:26:14.288Z,19.30
2018-09-15T02:28:42.056Z,19.30
2018-09-15T02:31:09.846Z,19.30
2018-09-15T02:33:37.581Z,19.30
2018-09-15T02:36:05.370Z,19.30
2018-09-15T02:38:33.125Z,19.30
2018-09-15T02:41:00.932Z,19.30
2018-09-15T02:43:28.813Z,19.30
2018-09-15T02:45:56.625Z,19.20
2018-09-15T02:48:24.502Z,19.20
2018-09-15T02:50:52.270Z,19.20
2018-09-15T02:53:20.149Z,19.20
2018-09-15T02:55:47.929Z,19.30
2018-09-15T02:58:15.697Z,19.20
2018-09-15T03:00:43.501Z,19.30
2018-09-15T03:03:12.152Z,19.20
2018-09-15T03:05:40.466Z,19.30
2018-09-15T03:08:08.237Z,19.30
2018-09-15T03:10:36.040Z,19.30
2018-09-15T03:13:03.786Z,19.30
2018-09-15T03:15:31.550Z,19.20
2018-09-15T03:17:59.353Z,19.20
2018-09-15T03:20:27.127Z,19.20
2018-09-15T03:22:55.273Z,19.20
2018-09-15T03:25:23.085Z,19.20
2018-09-15T03:27:50.877Z,19.20
2018-09-15T03:30:18.813Z,19.10
2018-09-15T03:32:46.612Z,19.20
2018-09-15T03:35:14.997Z,19.10
2018-09-15T03:37:43.129Z,19.10
2018-09-15T03:40:10.933Z,19.10
2018-09-15T03:42:38.680Z,19.10
2018-09-15T03:45:06.544Z,19.10
2018-09-15T03:47:34.288Z,19.10
2018-09-15T03:50:02.085Z,19.20
2018-09-15T03:52:29.889Z,19.20
2018-09-15T03:54:57.712Z,19.20
2018-09-15T03:57:25.559Z,19.10
2018-09-15T03:59:53.525Z,19.10
2018-09-15T04:02:21.261Z,19.10
2018-09-15T04:04:49.076Z,19.10
2018-09-15T04:07:16.833Z,19.10
2018-09-15T04:09:44.597Z,19.10
2018-09-15T04:12:12.380Z,19.10
2018-09-15T04:14:40.140Z,19.10
2018-09-15T04:17:07.937Z,19.10
2018-09-15T04:19:35.704Z,19.10
2018-09-15T04:22:04.251Z,19.10
2018-09-15T04:24:32.061Z,19.20
2018-09-15T04:26:59.832Z,19.30
2018-09-15T04:29:27.633Z,19.30
2018-09-15T04:31:55.792Z,19.20
2018-09-15T04:34:23.581Z,19.20
2018-09-15T04:36:52.593Z,19.20
2018-09-15T04:39:20.377Z,19.20
2018-09-15T04:41:48.886Z,19.20
2018-09-15T04:44:16.645Z,19.20
2018-09-15T04:46:44.405Z,19.20
2018-09-15T04:49:12.194Z,19.10
2018-09-15T04:51:39.974Z,19.00
2018-09-15T04:54:07.764Z,19.10
2018-09-15T04:56:35.587Z,19.10
2018-09-15T04:59:03.408Z,19.10
2018-09-15T05:01:31.237Z,19.10
2018-09-15T05:03:59.061Z,19.10
2018-09-15T05:06:26.937Z,19.00
2018-09-15T05:08:54.858Z,19.00
2018-09-15T05:11:22.628Z,19.00
2018-09-15T05:13:50.426Z,19.10
2018-09-15T05:16:18.206Z,19.10
2018-09-15T05:18:46.272Z,19.10
2018-09-15T05:21:14.042Z,19.10
2018-09-15T05:23:41.986Z,19.10
2018-09-15T05:26:09.776Z,19.20
2018-09-15T05:28:37.607Z,19.00
2018-09-15T05:31:05.341Z,19.00
2018-09-15T05:33:33.156Z,19.10
2018-09-15T05:36:01.032Z,19.10
2018-09-15T05:38:28.837Z,19.00
2018-09-15T05:40:56.718Z,19.00
2018-09-15T05:43:24.524Z,19.00
2018-09-15T05:45:52.292Z,19.00
2018-09-15T05:48:20.085Z,19.10
2018-09-15T05:50:47.869Z,19.10
2018-09-15T05:53:15.643Z,19.10
2018-09-15T05:55:43.448Z,19.00
2018-09-15T05:58:11.220Z,19.10
2018-09-15T06:00:39.020Z,19.00
2018-09-15T06:03:06.821Z,19.00
2018-09-15T06:05:34.574Z,19.00
2018-09-15T06:08:02.376Z,19.20
2018-09-15T06:10:30.189Z,19.00
2018-09-15T06:12:59.384Z,19.00
2018-09-15T06:15:27.261Z,19.00
2018-09-15T06:17:55.241Z,19.00
2018-09-15T06:20:23.869Z,19.00
2018-09-15T06:22:51.629Z,19.00
2018-09-15T06:25:19.617Z,19.00
2018-09-15T06:27:47.371Z,19.00
2018-09-15T06:30:15.169Z,19.00
2018-09-15T06:32:42.964Z,19.00
2018-09-15T06:35:10.853Z,19.00
2018-09-15T06:37:38.611Z,19.00
2018-09-15T06:40:06.761Z,19.10
2018-09-15T06:42:34.537Z,19.10
2018-09-15T06:45:02.381Z,19.20
2018-09-15T06:47:30.261Z,19.20
2018-09-15T06:49:58.121Z,19.30
2018-09-15T06:52:25.908Z,19.30
2018-09-15T06:54:53.671Z,19.40
2018-09-15T06:57:21.478Z,19.40
2018-09-15T06:59:49.232Z,19.50
2018-09-15T07:02:17.025Z,19.50
2018-09-15T07:04:44.796Z,19.60
2018-09-15T07:07:12.557Z,19.60
2018-09-15T07:09:40.325Z,19.70
2018-09-15T07:12:08.178Z,19.80
2018-09-15T07:14:35.957Z,19.90
2018-09-15T07:17:03.753Z,20.00
2018-09-15T07:19:31.597Z,20.10
2018-09-15T07:21:59.505Z,20.20
2018-09-15T07:24:27.300Z,20.20
2018-09-15T07:26:55.273Z,20.30
2018-09-15T07:29:23.053Z,20.40
2018-09-15T07:31:51.103Z,20.50
2018-09-15T07:34:18.933Z,20.60
2018-09-15T07:36:46.769Z,20.70
2018-09-15T07:39:14.672Z,20.70
2018-09-15T07:41:42.484Z,20.80
2018-09-15T07:44:10.310Z,20.80
2018-09-15T07:46:39.033Z,20.80
2018-09-15T07:49:06.805Z,20.70
2018-09-15T07:51:34.695Z,20.70
2018-09-15T07:54:02.472Z,20.70
2018-09-15T07:56:31.625Z,20.70
2018-09-15T07:58:59.445Z,20.60
2018-09-15T08:01:31.472Z,20.60
2018-09-15T08:03:59.378Z,20.60
2018-09-15T08:06:27.193Z,20.50
2018-09-15T08:08:55.243Z,20.50
2018-09-15T08:11:23.088Z,20.50
2018-09-15T08:13:50.905Z,20.40
2018-09-15T08:16:22.033Z,20.60
2018-09-15T08:18:50.045Z,20.60
2018-09-15T08:21:17.864Z,20.70
2018-09-15T08:23:45.629Z,20.80
2018-09-15T08:26:13.487Z,20.90
2018-09-15T08:28:41.289Z,21.20
2018-09-15T08:31:09.641Z,21.60
2018-09-15T08:33:37.428Z,22.00
2018-09-15T08:36:05.269Z,22.60
2018-09-15T08:38:33.361Z,23.30
2018-09-15T08:41:01.221Z,24.00
2018-09-15T08:43:29.025Z,24.70
2018-09-15T08:45:57.041Z,25.30
2018-09-15T08:48:24.857Z,25.80
2018-09-15T08:50:52.637Z,26.20
2018-09-15T08:53:21.521Z,26.70
2018-09-15T08:55:49.384Z,27.20
2018-09-15T08:58:17.209Z,27.60
2018-09-15T09:00:45.005Z,28.20
2018-09-15T09:03:12.865Z,28.70
2018-09-15T09:05:40.689Z,29.20
2018-09-15T09:08:08.518Z,29.60
2018-09-15T09:10:36.321Z,29.90
2018-09-15T09:13:04.217Z,30.30
2018-09-15T09:15:32.144Z,30.50
2018-09-15T09:18:00.022Z,30.70
2018-09-15T09:20:27.956Z,30.90
2018-09-15T09:22:55.845Z,31.20
2018-09-15T09:25:23.640Z,31.40
2018-09-15T09:27:51.401Z,31.70
2018-09-15T09:30:19.189Z,32.00
2018-09-15T09:32:47.032Z,32.00
2018-09-15T09:35:14.905Z,32.00
2018-09-15T09:37:42.757Z,32.40
2018-09-15T09:40:10.577Z,32.40
2018-09-15T09:42:38.440Z,32.50
2018-09-15T09:45:07.217Z,32.50
2018-09-15T09:47:35.017Z,32.70
2018-09-15T09:50:02.865Z,32.90
2018-09-15T09:52:30.670Z,33.20
2018-09-15T09:54:58.781Z,33.50
2018-09-15T09:57:26.780Z,33.80
2018-09-15T09:59:54.652Z,34.00
2018-09-15T10:02:23.505Z,34.30
2018-09-15T10:04:51.367Z,34.40
2018-09-15T10:07:19.481Z,34.70
2018-09-15T10:09:48.396Z,34.70
2018-09-15T10:12:16.314Z,34.70
2018-09-15T10:14:44.135Z,34.90
2018-09-15T10:17:11.959Z,35.00
2018-09-15T10:19:39.753Z,35.10
2018-09-15T10:22:07.525Z,35.30
2018-09-15T10:24:35.329Z,35.40
2018-09-15T10:27:03.232Z,35.50
2018-09-15T10:29:31.104Z,35.70
2018-09-15T10:31:58.894Z,35.80
2018-09-15T10:34:26.739Z,36.00
2018-09-15T10:36:55.241Z,35.90
2018-09-15T10:39:23.021Z,35.90
2018-09-15T10:41:50.814Z,36.00
2018-09-15T10:44:18.687Z,35.90
2018-09-15T10:46:46.624Z,35.90
2018-09-15T10:49:14.473Z,36.10
2018-09-15T10:51:42.257Z,36.30
2018-09-15T10:54:10.013Z,36.30
2018-09-15T10:56:37.782Z,36.50
2018-09-15T10:59:05.574Z,36.70
2018-09-15T11:01:33.396Z,36.90
2018-09-15T11:04:01.245Z,36.80
2018-09-15T11:06:29.106Z,37.00
2018-09-15T11:08:57.804Z,36.90
2018-09-15T11:11:25.625Z,36.80
2018-09-15T11:13:53.393Z,36.80
2018-09-15T11:16:21.181Z,36.90
2018-09-15T11:18:48.967Z,36.80
2018-09-15T11:21:16.793Z,36.90
2018-09-15T11:23:44.553Z,37.10
2018-09-15T11:26:12.333Z,37.30
2018-09-15T11:28:40.190Z,37.40
2018-09-15T11:31:08.059Z,37.60
2018-09-15T11:33:35.853Z,37.80
2018-09-15T11:36:03.689Z,37.90
2018-09-15T11:38:31.557Z,38.00
2018-09-15T11:40:59.561Z,38.20
2018-09-15T11:43:27.391Z,38.30
2018-09-15T11:45:55.269Z,38.40
2018-09-15T11:48:23.053Z,38.60
2018-09-15T11:50:50.964Z,38.80
2018-09-15T11:53:18.817Z,38.80
2018-09-15T11:55:46.656Z,38.80
2018-09-15T11:58:14.634Z,39.20
2018-09-15T12:00:46.045Z,39.10
2018-09-15T12:03:14.080Z,39.20
2018-09-15T12:05:41.909Z,39.20
2018-09-15T12:08:09.714Z,39.40
2018-09-15T12:10:37.517Z,39.30
2018-09-15T12:13:05.345Z,39.20
2018-09-15T12:15:33.148Z,39.30
2018-09-15T12:18:01.115Z,39.30
2018-09-15T12:20:29.188Z,39.40
2018-09-15T12:22:57.338Z,39.40
2018-09-15T12:25:25.124Z,39.40
2018-09-15T12:27:53.009Z,39.30
2018-09-15T12:30:20.792Z,39.20
2018-09-15T12:32:48.573Z,39.20
2018-09-15T12:35:16.380Z,39.20
2018-09-15T12:37:44.186Z,39.20
2018-09-15T12:40:11.957Z,39.20
2018-09-15T12:42:39.797Z,39.20
2018-09-15T12:45:07.761Z,39.30
2018-09-15T12:47:35.468Z,39.40
2018-09-15T12:50:03.284Z,39.60
2018-09-15T12:52:31.241Z,39.70
2018-09-15T12:55:00.346Z,39.80
2018-09-15T12:57:28.162Z,39.80
2018-09-15T12:59:58.266Z,39.60
2018-09-15T13:02:26.137Z,39.60
2018-09-15T13:04:53.974Z,39.60
2018-09-15T13:07:21.818Z,39.70
2018-09-15T13:09:49.637Z,39.70
2018-09-15T13:12:17.424Z,39.60
2018-09-15T13:14:45.209Z,39.60
2018-09-15T13:17:13.005Z,39.60
2018-09-15T13:19:41.688Z,39.50
2018-09-15T13:22:09.484Z,39.50
2018-09-15T13:24:37.296Z,39.60
2018-09-15T13:27:05.253Z,39.50
2018-09-15T13:29:33.329Z,39.60
2018-09-15T13:32:01.297Z,39.60
2018-09-15T13:34:29.329Z,39.50
2018-09-15T13:36:57.240Z,39.60
2018-09-15T13:39:25.105Z,39.60
2018-09-15T13:41:52.896Z,39.60
2018-09-15T13:44:20.709Z,39.50
2018-09-15T13:46:48.632Z,39.50
2018-09-15T13:49:16.394Z,39.40
2018-09-15T13:51:44.208Z,39.40
2018-09-15T13:54:11.972Z,39.60
2018-09-15T13:56:39.722Z,39.60
2018-09-15T13:59:07.599Z,39.60
2018-09-15T14:01:35.377Z,39.50
2018-09-15T14:04:03.208Z,39.40
2018-09-15T14:06:31.180Z,39.30
2018-09-15T14:08:59.025Z,39.30
2018-09-15T14:11:26.873Z,39.10
2018-09-15T14:13:54.729Z,39.00
2018-09-15T14:16:22.644Z,39.00
2018-09-15T14:18:50.408Z,39.00
2018-09-15T14:21:18.189Z,38.80
2018-09-15T14:23:45.948Z,38.70
2018-09-15T14:26:13.737Z,38.70
2018-09-15T14:28:41.729Z,38.60
2018-09-15T14:31:09.492Z,38.50
2018-09-15T14:33:37.309Z,38.40
2018-09-15T14:36:05.065Z,38.40
2018-09-15T14:38:32.939Z,38.20
2018-09-15T14:41:00.720Z,37.80
2018-09-15T14:43:28.525Z,37.70
2018-09-15T14:45:56.373Z,37.50
2018-09-15T14:48:24.207Z,37.30
2018-09-15T14:50:51.950Z,37.10
2018-09-15T14:53:19.805Z,36.90
2018-09-15T14:55:47.645Z,36.80
2018-09-15T14:58:15.437Z,36.50
2018-09-15T15:00:47.791Z,36.50
2018-09-15T15:03:15.672Z,36.20
2018-09-15T15:05:43.460Z,36.10
2018-09-15T15:08:11.340Z,35.80
2018-09-15T15:10:39.165Z,35.70
2018-09-15T15:13:06.949Z,35.50
2018-09-15T15:15:34.760Z,35.30
2018-09-15T15:18:02.637Z,35.10
2018-09-15T15:20:30.637Z,34.90
2018-09-15T15:22:58.418Z,34.60
2018-09-15T15:25:26.252Z,34.40
2018-09-15T15:27:54.045Z,34.20
2018-09-15T15:30:21.840Z,33.90
2018-09-15T15:32:49.657Z,33.70
2018-09-15T15:35:17.477Z,33.40
2018-09-15T15:37:45.295Z,33.10
2018-09-15T15:40:13.101Z,32.70
2018-09-15T15:42:40.869Z,32.40
2018-09-15T15:45:08.695Z,31.80
2018-09-15T15:47:36.437Z,31.40
2018-09-15T15:50:04.321Z,31.00
2018-09-15T15:52:32.225Z,30.60
2018-09-15T15:55:00.101Z,30.20
2018-09-15T15:57:27.903Z,29.90
2018-09-15T15:59:55.798Z,29.60
2018-09-15T16:02:23.624Z,29.20
2018-09-15T16:04:51.431Z,28.80
2018-09-15T16:07:19.513Z,28.60
2018-09-15T16:09:47.303Z,28.20
2018-09-15T16:12:15.161Z,28.00
2018-09-15T16:14:42.985Z,27.70
2018-09-15T16:17:10.862Z,27.40
2018-09-15T16:19:38.705Z,27.20
2018-09-15T16:22:06.685Z,26.90
2018-09-15T16:24:34.568Z,26.80
2018-09-15T16:27:02.528Z,26.70
2018-09-15T16:29:30.492Z,26.60
2018-09-15T16:31:58.305Z,26.50
2018-09-15T16:34:26.082Z,26.40
2018-09-15T16:36:53.885Z,26.40
2018-09-15T16:39:21.721Z,26.30
2018-09-15T16:41:49.521Z,26.20
2018-09-15T16:44:17.321Z,26.10
2018-09-15T16:46:45.375Z,25.90
2018-09-15T16:49:13.207Z,25.80
2018-09-15T16:51:41.036Z,25.70
2018-09-15T16:54:08.804Z,25.60
2018-09-15T16:56:37.029Z,25.50
2018-09-15T16:59:04.964Z,25.40
2018-09-15T17:01:33.029Z,25.30
2018-09-15T17:04:00.797Z,25.20
2018-09-15T17:06:28.577Z,25.10
2018-09-15T17:08:56.901Z,25.00
2018-09-15T17:11:25.410Z,24.80
2018-09-15T17:13:53.959Z,24.70
2018-09-15T17:16:22.578Z,24.60
2018-09-15T17:18:51.040Z,24.50
2018-09-15T17:21:19.519Z,24.30
2018-09-15T17:23:47.320Z,24.20
2018-09-15T17:26:15.194Z,24.10
2018-09-15T17:28:42.976Z,24.10
2018-09-15T17:31:11.161Z,24.00
2018-09-15T17:33:38.952Z,23.90
2018-09-15T17:36:06.903Z,23.90
2018-09-15T17:38:34.874Z,23.80
2018-09-15T17:41:02.912Z,23.80
2018-09-15T17:43:30.802Z,23.70
2018-09-15T17:45:58.647Z,23.60
2018-09-15T17:48:26.423Z,23.50
2018-09-15T17:50:54.220Z,23.50
2018-09-15T17:53:22.009Z,23.40
2018-09-15T17:55:49.815Z,23.40
2018-09-15T17:58:18.161Z,23.40
2018-09-15T18:00:45.977Z,23.30
2018-09-15T18:03:13.793Z,23.20
2018-09-15T18:05:41.612Z,23.20
2018-09-15T18:08:09.508Z,23.10
2018-09-15T18:10:37.357Z,23.10
2018-09-15T18:13:05.312Z,23.10
2018-09-15T18:15:33.253Z,23.00
2018-09-15T18:18:01.162Z,22.90
2018-09-15T18:20:28.936Z,22.80
2018-09-15T18:22:56.736Z,22.70
2018-09-15T18:25:24.615Z,22.50
2018-09-15T18:27:52.397Z,22.60
2018-09-15T18:30:20.172Z,22.40
2018-09-15T18:32:47.959Z,22.30
2018-09-15T18:35:15.860Z,22.30
2018-09-15T18:37:43.638Z,22.30
2018-09-15T18:40:11.493Z,22.20
2018-09-15T18:42:39.249Z,22.10
2018-09-15T18:45:07.205Z,21.90
2018-09-15T18:47:34.964Z,21.80
2018-09-15T18:50:03.060Z,21.90
2018-09-15T18:52:30.901Z,21.80
2018-09-15T18:54:59.817Z,21.80
2018-09-15T18:57:27.607Z,21.70
2018-09-15T18:59:56.084Z,21.60
2018-09-15T19:02:23.945Z,21.60
2018-09-15T19:04:51.860Z,21.60
2018-09-15T19:07:19.792Z,21.60
2018-09-15T19:09:47.617Z,21.50
2018-09-15T19:12:15.525Z,21.50
2018-09-15T19:14:43.408Z,21.50
2018-09-15T19:17:11.222Z,21.50
2018-09-15T19:19:39.169Z,21.50
2018-09-15T19:22:07.169Z,21.50
2018-09-15T19:24:35.075Z,21.40
2018-09-15T19:27:03.130Z,21.40
2018-09-15T19:29:31.094Z,21.50
2018-09-15T19:31:58.878Z,21.40
2018-09-15T19:34:26.662Z,21.40
2018-09-15T19:36:54.437Z,21.30
2018-09-15T19:39:22.285Z,21.20
2018-09-15T19:41:50.081Z,21.20
2018-09-15T19:44:17.994Z,21.20
2018-09-15T19:46:45.737Z,21.20
2018-09-15T19:49:13.674Z,21.10
2018-09-15T19:51:41.483Z,21.00
2018-09-15T19:54:09.249Z,20.90
2018-09-15T19:56:37.069Z,20.80
2018-09-15T19:59:05.360Z,20.70
2018-09-15T20:01:33.297Z,20.70
2018-09-15T20:04:01.131Z,20.70
2018-09-15T20:06:29.038Z,20.70
2018-09-15T20:08:56.825Z,20.60
2018-09-15T20:11:24.636Z,20.60
2018-09-15T20:13:52.537Z,20.60
2018-09-15T20:16:19.243Z,20.60
2018-09-15T20:18:45.932Z,20.60
2018-09-15T20:21:12.496Z,20.50
2018-09-15T20:23:40.295Z,20.60
2018-09-15T20:26:08.101Z,20.50
2018-09-15T20:28:36.064Z,20.50
2018-09-15T20:31:03.857Z,20.40
2018-09-15T20:33:31.698Z,20.40
2018-09-15T20:35:59.489Z,20.40
2018-09-15T20:38:27.325Z,20.30
2018-09-15T20:40:55.219Z,20.30
2018-09-15T20:43:23.181Z,20.20
2018-09-15T20:45:50.973Z,20.20
2018-09-15T20:48:18.785Z,20.10
2018-09-15T20:50:46.557Z,20.10
2018-09-15T20:53:14.320Z,20.00
2018-09-15T20:55:42.109Z,20.00
2018-09-15T20:58:09.908Z,19.90
2018-09-15T21:00:37.712Z,19.90
2018-09-15T21:03:05.553Z,19.90
2018-09-15T21:05:33.494Z,19.80
2018-09-15T21:08:01.280Z,19.80
2018-09-15T21:10:29.098Z,19.90
2018-09-15T21:12:57.004Z,19.90
2018-09-15T21:15:24.829Z,19.80
2018-09-15T21:17:52.641Z,19.80
2018-09-15T21:20:20.440Z,19.70
2018-09-15T21:22:48.338Z,19.60
2018-09-15T21:25:16.210Z,19.60
2018-09-15T21:27:44.012Z,19.50
2018-09-15T21:30:14.113Z,19.50
2018-09-15T21:32:41.928Z,19.50
2018-09-15T21:35:11.801Z,19.40
2018-09-15T21:37:40.853Z,19.40
2018-09-15T21:40:08.721Z,19.30
2018-09-15T21:42:36.664Z,19.30
2018-09-15T21:45:04.758Z,19.30
2018-09-15T21:47:32.853Z,19.20
2018-09-15T21:50:00.889Z,19.20
2018-09-15T21:52:28.808Z,19.20
2018-09-15T21:54:56.614Z,19.10
2018-09-15T21:57:24.429Z,19.10
2018-09-15T21:59:52.208Z,19.10
2018-09-15T22:02:21.761Z,19.00
2018-09-15T22:04:49.763Z,19.00
2018-09-15T22:07:17.688Z,19.10
2018-09-15T22:09:46.325Z,19.10
2018-09-15T22:12:14.153Z,19.00
2018-09-15T22:14:41.931Z,18.90
2018-09-15T22:17:09.748Z,18.80
2018-09-15T22:19:37.573Z,18.80
2018-09-15T22:22:06.730Z,18.70
2018-09-15T22:24:35.087Z,18.60
2018-09-15T22:27:03.544Z,18.50
2018-09-15T22:29:31.367Z,18.50
2018-09-15T22:31:59.237Z,18.40
2018-09-15T22:34:27.001Z,18.40
2018-09-15T22:36:54.900Z,18.40
2018-09-15T22:39:23.020Z,18.30
2018-09-15T22:41:50.960Z,18.30
2018-09-15T22:44:19.060Z,18.20
2018-09-15T22:46:46.901Z,18.10
2018-09-15T22:49:14.663Z,18.10
2018-09-15T22:51:42.485Z,18.10
2018-09-15T22:54:10.427Z,18.20
2018-09-15T22:56:38.233Z,18.20
2018-09-15T22:59:06.477Z,18.20
2018-09-15T23:01:34.288Z,18.10
2018-09-15T23:04:04.466Z,18.20
2018-09-15T23:06:33.217Z,18.20
2018-09-15T23:09:01.245Z,18.20
2018-09-15T23:11:29.045Z,18.10
2018-09-15T23:13:56.921Z,18.00
2018-09-15T23:16:24.710Z,17.90
2018-09-15T23:18:52.542Z,17.80
2018-09-15T23:21:20.284Z,17.80
2018-09-15T23:23:48.225Z,17.70
2018-09-15T23:26:16.460Z,17.70
2018-09-15T23:28:44.206Z,17.70
2018-09-15T23:31:12.045Z,17.70
2018-09-15T23:33:39.849Z,17.70
2018-09-15T23:36:07.677Z,17.60
2018-09-15T23:38:35.452Z,17.60
2018-09-15T23:41:06.068Z,17.50
2018-09-15T23:43:33.853Z,17.50
2018-09-15T23:46:01.603Z,17.50
2018-09-15T23:48:29.427Z,17.50
2018-09-15T23:50:57.261Z,17.50
2018-09-15T23:53:25.025Z,17.50
2018-09-15T23:55:52.826Z,17.50
2018-09-15T23:58:20.644Z,17.40
